createdAt,value
2022-07-31T00:02:22.340Z,68.56
2022-07-31T00:05:25.677Z,68.77
2022-07-31T00:08:27.481Z,69.22
2022-07-31T00:11:29.508Z,69.41
2022-07-31T00:14:31.291Z,69.47
2022-07-31T00:17:33.964Z,69.71
2022-07-31T00:20:36.012Z,69.58
2022-07-31T00:23:37.841Z,69.63
2022-07-31T00:26:40.962Z,69.72
2022-07-31T00:29:42.755Z,69.96
2022-07-31T00:32:45.866Z,69.62
2022-07-31T00:35:48.271Z,68.93
2022-07-31T00:38:50.180Z,69.11
2022-07-31T00:41:54.969Z,69.11
2022-07-31T00:44:57.157Z,69.34
2022-07-31T00:48:01.899Z,69.23
2022-07-31T00:51:03.961Z,69.34
2022-07-31T00:54:08.480Z,69.20
2022-07-31T00:57:10.451Z,69.23
2022-07-31T01:00:13.777Z,69.34
2022-07-31T01:03:16.493Z,69.48
2022-07-31T01:06:18.447Z,69.45
2022-07-31T01:09:21.109Z,69.49
2022-07-31T01:12:33.525Z,69.66
2022-07-31T01:15:38.012Z,69.72
2022-07-31T01:18:42.431Z,69.68
2022-07-31T01:21:57.855Z,69.69
2022-07-31T01:25:28.918Z,69.56
2022-07-31T01:29:05.838Z,69.95
2022-07-31T01:32:18.794Z,70.15
2022-07-31T01:35:35.382Z,70.17
2022-07-31T01:38:45.740Z,70.23
2022-07-31T01:41:49.894Z,70.46
2022-07-31T01:44:56.882Z,70.25
2022-07-31T01:48:01.552Z,70.51
2022-07-31T01:51:10.321Z,70.22
2022-07-31T01:54:13.000Z,70.14
2022-07-31T01:57:18.571Z,69.91
2022-07-31T02:00:34.309Z,69.83
2022-07-31T02:03:42.883Z,69.76
2022-07-31T02:06:50.364Z,69.86
2022-07-31T02:09:58.462Z,70.20
2022-07-31T02:13:06.859Z,70.21
2022-07-31T02:16:10.134Z,69.99
2022-07-31T02:19:14.948Z,70.27
2022-07-31T02:22:17.269Z,70.48
2022-07-31T02:25:19.122Z,70.48
2022-07-31T02:28:22.317Z,70.29
2022-07-31T02:31:24.776Z,69.65
2022-07-31T02:34:29.892Z,70.65
2022-07-31T02:37:36.327Z,69.90
2022-07-31T02:40:40.308Z,70.44
2022-07-31T02:43:45.523Z,70.60
2022-07-31T02:46:56.274Z,70.75
2022-07-31T02:49:58.800Z,70.62
2022-07-31T02:53:00.895Z,70.45
2022-07-31T02:56:04.641Z,70.53
2022-07-31T02:59:10.732Z,70.01
2022-07-31T03:02:37.061Z,69.99
2022-07-31T03:05:40.509Z,70.49
2022-07-31T03:08:42.583Z,70.58
2022-07-31T03:11:45.413Z,70.31
2022-07-31T03:14:47.746Z,70.29
2022-07-31T03:17:50.592Z,69.76
2022-07-31T03:21:00.278Z,69.78
2022-07-31T03:24:03.686Z,70.16
2022-07-31T03:27:08.203Z,69.84
2022-07-31T03:30:18.458Z,69.24
2022-07-31T03:33:22.209Z,69.00
2022-07-31T03:36:24.209Z,68.49
2022-07-31T03:39:26.151Z,68.20
2022-07-31T03:42:32.270Z,68.21
2022-07-31T03:45:39.355Z,68.02
2022-07-31T03:48:42.376Z,67.44
2022-07-31T03:51:44.385Z,67.30
2022-07-31T03:54:46.883Z,67.09
2022-07-31T03:57:52.474Z,66.53
2022-07-31T04:00:56.331Z,65.69
2022-07-31T04:03:59.478Z,65.61
2022-07-31T04:07:08.413Z,64.41
2022-07-31T04:10:10.587Z,63.51
2022-07-31T04:13:12.490Z,62.79
2022-07-31T04:16:15.334Z,61.89
2022-07-31T04:19:17.211Z,60.62
2022-07-31T04:22:19.158Z,60.29
2022-07-31T04:25:21.436Z,59.69
2022-07-31T04:28:50.521Z,58.67
2022-07-31T04:31:52.345Z,58.07
2022-07-31T04:35:01.541Z,56.47
2022-07-31T04:38:03.476Z,55.08
2022-07-31T04:41:08.787Z,54.88
2022-07-31T04:44:10.784Z,53.55
2022-07-31T04:47:27.265Z,52.91
2022-07-31T04:50:29.259Z,53.21
2022-07-31T04:53:33.177Z,52.14
2022-07-31T04:56:45.592Z,51.02
2022-07-31T04:59:59.705Z,50.80
2022-07-31T05:03:08.553Z,49.63
2022-07-31T05:06:14.159Z,48.61
2022-07-31T05:09:25.825Z,48.62
2022-07-31T05:12:42.459Z,47.93
2022-07-31T05:16:07.666Z,46.58
2022-07-31T05:19:32.555Z,46.31
2022-07-31T05:23:06.462Z,46.61
2022-07-31T05:26:33.551Z,46.70
2022-07-31T05:29:46.942Z,44.52
2022-07-31T05:32:54.331Z,43.94
2022-07-31T05:36:16.152Z,43.61
2022-07-31T05:39:30.817Z,42.33
2022-07-31T05:42:56.061Z,41.83
2022-07-31T05:46:31.158Z,41.34
2022-07-31T05:49:41.520Z,41.26
2022-07-31T05:52:48.317Z,39.94
2022-07-31T05:56:14.993Z,40.08
2022-07-31T05:59:28.549Z,39.17
2022-07-31T06:02:38.861Z,39.06
2022-07-31T06:06:09.398Z,37.41
2022-07-31T06:09:17.389Z,37.63
2022-07-31T06:12:22.861Z,36.97
2022-07-31T06:15:55.916Z,37.50
2022-07-31T06:19:13.163Z,35.47
2022-07-31T06:22:22.653Z,35.51
2022-07-31T06:25:39.132Z,35.94
2022-07-31T06:29:06.159Z,34.86
2022-07-31T06:32:18.120Z,34.44
2022-07-31T06:35:40.803Z,35.35
2022-07-31T06:39:17.225Z,33.73
2022-07-31T06:42:42.567Z,33.49
2022-07-31T06:45:51.992Z,33.42
2022-07-31T06:49:40.229Z,33.16
2022-07-31T06:52:53.974Z,32.65
2022-07-31T06:56:06.103Z,32.58
2022-07-31T06:59:15.128Z,31.53
2022-07-31T07:02:47.901Z,32.01
2022-07-31T07:05:53.065Z,31.70
2022-07-31T07:08:56.214Z,31.47
2022-07-31T07:11:58.428Z,30.63
2022-07-31T07:15:01.653Z,30.88
2022-07-31T07:18:04.573Z,31.45
2022-07-31T07:21:14.884Z,31.98
2022-07-31T07:24:16.800Z,31.17
2022-07-31T07:27:26.508Z,30.78
2022-07-31T07:30:28.881Z,30.37
2022-07-31T07:33:40.604Z,30.44
2022-07-31T07:36:45.347Z,29.78
2022-07-31T07:39:53.450Z,29.99
2022-07-31T07:42:58.772Z,29.69
2022-07-31T07:46:04.860Z,29.24
2022-07-31T07:49:07.281Z,30.41
2022-07-31T07:52:33.398Z,30.81
2022-07-31T07:56:04.376Z,30.31
2022-07-31T07:59:24.562Z,29.32
2022-07-31T08:03:49.139Z,28.96
2022-07-31T08:06:26.432Z,29.48
2022-07-31T08:09:28.418Z,29.85
2022-07-31T08:12:49.063Z,28.72
2022-07-31T08:16:10.870Z,29.68
2022-07-31T08:19:18.403Z,28.90
2022-07-31T08:22:20.425Z,28.05
2022-07-31T08:25:22.395Z,27.16
2022-07-31T08:28:26.006Z,27.18
2022-07-31T08:31:28.401Z,27.33
2022-07-31T08:34:49.016Z,27.49
2022-07-31T08:38:03.139Z,28.66
2022-07-31T08:41:15.108Z,29.26
2022-07-31T08:44:17.714Z,27.45
2022-07-31T08:47:31.176Z,28.21
2022-07-31T08:50:40.099Z,28.44
2022-07-31T08:53:52.132Z,27.41
2022-07-31T08:56:58.550Z,27.10
2022-07-31T09:00:06.039Z,26.88
2022-07-31T09:03:09.157Z,26.98
2022-07-31T09:06:40.260Z,26.84
2022-07-31T09:09:51.226Z,26.63
2022-07-31T09:12:54.643Z,25.64
2022-07-31T09:16:00.306Z,27.52
2022-07-31T09:19:52.013Z,26.19
2022-07-31T09:22:45.901Z,25.44
2022-07-31T09:26:05.095Z,26.45
2022-07-31T09:29:14.627Z,25.95
2022-07-31T09:32:28.155Z,27.08
2022-07-31T09:36:01.631Z,25.50
2022-07-31T09:39:27.205Z,26.13
2022-07-31T09:43:32.053Z,26.18
2022-07-31T09:46:47.083Z,27.01
2022-07-31T09:50:10.991Z,24.88
2022-07-31T09:53:18.265Z,25.38
2022-07-31T09:56:43.876Z,25.02
2022-07-31T09:59:59.475Z,24.54
2022-07-31T10:03:13.355Z,26.28
2022-07-31T10:06:28.815Z,26.99
2022-07-31T10:09:45.725Z,25.83
2022-07-31T10:13:26.239Z,26.94
2022-07-31T10:16:55.452Z,25.72
2022-07-31T10:20:28.472Z,25.95
2022-07-31T10:24:13.121Z,26.46
2022-07-31T10:27:19.800Z,26.97
2022-07-31T10:30:32.791Z,27.19
2022-07-31T10:33:44.536Z,26.04
2022-07-31T10:37:31.103Z,27.62
2022-07-31T10:41:21.932Z,26.96
2022-07-31T10:44:52.298Z,27.90
2022-07-31T10:48:15.792Z,27.22
2022-07-31T10:51:56.236Z,26.74
2022-07-31T10:55:34.056Z,26.98
2022-07-31T10:59:10.521Z,24.47
2022-07-31T11:02:39.586Z,25.73
2022-07-31T11:06:16.110Z,25.31
2022-07-31T11:09:50.774Z,25.72
2022-07-31T11:13:33.641Z,25.11
2022-07-31T11:17:09.770Z,27.25
2022-07-31T11:20:35.532Z,26.81
2022-07-31T11:23:57.611Z,24.76
2022-07-31T11:27:19.019Z,25.82
2022-07-31T11:30:36.084Z,25.07
2022-07-31T11:33:45.929Z,25.43
2022-07-31T11:36:51.258Z,25.56
2022-07-31T11:39:54.983Z,25.92
2022-07-31T11:43:25.386Z,25.78
2022-07-31T11:46:28.931Z,25.05
2022-07-31T11:49:41.759Z,25.15
2022-07-31T11:52:51.173Z,25.05
2022-07-31T11:55:59.089Z,24.03
2022-07-31T11:59:01.082Z,24.98
2022-07-31T12:02:11.310Z,25.57
2022-07-31T12:05:14.278Z,24.34
2022-07-31T12:08:17.866Z,23.96
2022-07-31T12:11:21.354Z,24.59
2022-07-31T12:14:32.348Z,26.07
2022-07-31T12:17:34.214Z,25.23
2022-07-31T12:20:37.182Z,24.73
2022-07-31T12:23:44.042Z,26.00
2022-07-31T12:26:54.452Z,25.07
2022-07-31T12:29:56.410Z,24.91
2022-07-31T12:33:09.127Z,24.81
2022-07-31T12:36:15.798Z,24.05
2022-07-31T12:39:17.654Z,24.33
2022-07-31T12:42:35.096Z,24.20
2022-07-31T12:45:40.075Z,25.31
2022-07-31T12:48:46.002Z,24.85
2022-07-31T12:51:51.686Z,24.53
2022-07-31T12:55:00.897Z,24.58
2022-07-31T12:58:08.178Z,23.53
2022-07-31T13:01:20.303Z,23.85
2022-07-31T13:04:28.176Z,23.92
2022-07-31T13:07:42.887Z,24.97
2022-07-31T13:10:46.713Z,25.29
2022-07-31T13:13:53.481Z,24.20
2022-07-31T13:16:59.077Z,24.47
2022-07-31T13:20:02.563Z,24.41
2022-07-31T13:23:05.935Z,24.29
2022-07-31T13:26:13.676Z,24.40
2022-07-31T13:29:17.758Z,24.55
2022-07-31T13:32:20.395Z,25.92
2022-07-31T13:35:29.261Z,24.85
2022-07-31T13:38:40.800Z,25.02
2022-07-31T13:41:46.603Z,25.68
2022-07-31T13:44:59.604Z,24.98
2022-07-31T13:48:06.819Z,25.49
2022-07-31T13:51:12.506Z,25.26
2022-07-31T13:54:16.692Z,25.58
2022-07-31T13:57:22.336Z,25.38
2022-07-31T14:00:33.594Z,25.20
2022-07-31T14:03:51.213Z,26.66
2022-07-31T14:07:12.990Z,25.24
2022-07-31T14:10:21.129Z,25.51
2022-07-31T14:13:42.532Z,25.84
2022-07-31T14:16:51.805Z,25.21
2022-07-31T14:20:02.931Z,25.55
2022-07-31T14:23:15.540Z,25.63
2022-07-31T14:26:24.729Z,25.83
2022-07-31T14:29:39.363Z,25.57
2022-07-31T14:32:49.924Z,24.97
2022-07-31T14:35:59.292Z,25.34
2022-07-31T14:39:04.442Z,25.67
2022-07-31T14:42:28.155Z,25.95
2022-07-31T14:45:51.751Z,25.58
2022-07-31T14:49:01.217Z,25.19
2022-07-31T14:52:07.672Z,25.78
2022-07-31T14:55:22.755Z,25.87
2022-07-31T14:58:58.223Z,25.15
2022-07-31T15:02:05.061Z,25.19
2022-07-31T15:06:51.003Z,25.46
2022-07-31T15:08:44.490Z,25.83
2022-07-31T15:12:01.000Z,25.37
2022-07-31T15:15:15.807Z,25.70
2022-07-31T15:18:18.795Z,25.27
2022-07-31T15:21:30.029Z,25.38
2022-07-31T15:24:59.072Z,25.94
2022-07-31T15:28:24.691Z,26.21
2022-07-31T15:31:32.942Z,26.84
2022-07-31T15:34:58.407Z,27.90
2022-07-31T15:38:09.044Z,27.68
2022-07-31T15:41:31.334Z,27.58
2022-07-31T15:44:49.756Z,28.52
2022-07-31T15:48:09.625Z,28.39
2022-07-31T15:51:29.115Z,29.71
2022-07-31T15:54:40.156Z,29.34
2022-07-31T15:57:52.362Z,29.31
2022-07-31T16:00:57.231Z,29.83
2022-07-31T16:08:34.154Z,30.00
2022-07-31T16:11:21.217Z,30.06
2022-07-31T16:14:41.739Z,30.75
2022-07-31T16:17:57.208Z,31.34
2022-07-31T16:21:05.971Z,32.21
2022-07-31T16:24:13.671Z,31.92
2022-07-31T16:27:25.585Z,32.23
2022-07-31T16:30:33.412Z,32.87
2022-07-31T16:33:50.715Z,32.48
2022-07-31T16:37:01.639Z,34.02
2022-07-31T16:40:12.923Z,33.47
2022-07-31T16:43:49.556Z,33.58
2022-07-31T16:47:10.642Z,33.64
2022-07-31T16:50:24.078Z,33.70
2022-07-31T16:54:10.964Z,34.66
2022-07-31T16:57:01.169Z,34.47
2022-07-31T17:00:12.441Z,35.36
2022-07-31T17:03:58.983Z,36.36
2022-07-31T17:06:41.148Z,35.91
2022-07-31T17:09:43.971Z,36.55
2022-07-31T17:12:50.647Z,36.44
2022-07-31T17:15:53.035Z,37.69
2022-07-31T17:18:55.861Z,37.26
2022-07-31T17:21:59.279Z,38.49
2022-07-31T17:25:02.202Z,38.36
2022-07-31T17:28:05.172Z,38.86
2022-07-31T17:31:07.968Z,39.10
2022-07-31T17:34:11.184Z,38.93
2022-07-31T17:37:13.235Z,39.13
2022-07-31T17:40:41.812Z,39.50
2022-07-31T17:43:50.763Z,39.65
2022-07-31T17:50:27.898Z,39.87
2022-07-31T17:53:31.151Z,40.50
2022-07-31T17:56:52.162Z,40.80
2022-07-31T17:59:55.963Z,40.97
2022-07-31T18:02:59.201Z,41.54
2022-07-31T18:06:02.278Z,40.12
2022-07-31T18:09:05.958Z,40.65
2022-07-31T18:12:11.098Z,41.47
2022-07-31T18:15:17.962Z,41.72
2022-07-31T18:18:21.384Z,41.18
2022-07-31T18:21:24.389Z,40.40
2022-07-31T18:24:27.593Z,41.21
2022-07-31T18:27:31.081Z,41.40
2022-07-31T18:30:35.883Z,40.65
2022-07-31T18:33:43.897Z,41.68
2022-07-31T18:36:52.928Z,41.60
2022-07-31T18:40:00.847Z,41.64
2022-07-31T18:43:06.265Z,41.98
2022-07-31T18:46:08.978Z,41.59
2022-07-31T18:51:00.324Z,41.48
2022-07-31T18:52:34.499Z,42.31
2022-07-31T18:55:39.893Z,42.36
2022-07-31T18:58:45.285Z,41.66
2022-07-31T19:01:47.614Z,42.08
2022-07-31T19:04:50.359Z,42.39
2022-07-31T19:07:53.103Z,42.23
2022-07-31T19:10:55.420Z,42.72
2022-07-31T19:13:57.498Z,42.51
2022-07-31T19:17:01.293Z,43.05
2022-07-31T19:20:05.931Z,42.64
2022-07-31T19:23:13.293Z,42.39
2022-07-31T19:26:15.292Z,42.41
2022-07-31T19:29:21.298Z,43.28
2022-07-31T19:32:24.080Z,42.96
2022-07-31T19:35:27.090Z,43.21
2022-07-31T19:38:37.056Z,43.79
2022-07-31T19:41:39.189Z,43.08
2022-07-31T19:44:41.104Z,43.51
2022-07-31T19:47:43.864Z,43.07
2022-07-31T19:50:47.186Z,43.92
2022-07-31T19:53:50.393Z,44.12
2022-07-31T19:56:55.864Z,43.77
2022-07-31T19:59:59.403Z,44.26
2022-07-31T20:03:02.494Z,44.25
2022-07-31T20:06:05.267Z,44.00
2022-07-31T20:09:07.133Z,43.78
2022-07-31T20:12:09.201Z,44.17
2022-07-31T20:15:12.624Z,44.00
2022-07-31T20:18:26.854Z,43.85
2022-07-31T20:21:32.482Z,44.18
2022-07-31T20:24:39.819Z,44.39
2022-07-31T20:27:41.838Z,44.28
2022-07-31T20:30:43.999Z,44.45
2022-07-31T20:33:57.699Z,43.81
2022-07-31T20:37:00.235Z,44.24
2022-07-31T20:40:02.088Z,44.58
2022-07-31T20:43:04.025Z,45.04
2022-07-31T20:46:06.500Z,44.02
2022-07-31T20:49:08.553Z,44.53
2022-07-31T20:52:22.663Z,44.30
2022-07-31T20:55:24.528Z,43.73
2022-07-31T20:58:26.738Z,45.19
2022-07-31T21:01:28.816Z,44.98
2022-07-31T21:04:30.799Z,44.58
2022-07-31T21:07:32.942Z,44.28
2022-07-31T21:10:39.142Z,44.97
2022-07-31T21:13:50.504Z,44.94
2022-07-31T21:16:56.801Z,44.90
2022-07-31T21:20:07.599Z,45.25
2022-07-31T21:23:21.040Z,45.82
2022-07-31T21:26:29.045Z,46.02
2022-07-31T21:29:36.710Z,46.16
2022-07-31T21:32:40.138Z,46.23
2022-07-31T21:35:43.573Z,46.35
2022-07-31T21:38:46.392Z,46.39
2022-07-31T21:41:55.013Z,46.45
2022-07-31T21:45:06.635Z,46.50
2022-07-31T21:48:19.573Z,46.85
2022-07-31T21:51:31.983Z,46.90
2022-07-31T21:54:35.677Z,46.88
2022-07-31T21:57:59.144Z,46.54
2022-07-31T22:01:09.110Z,46.60
2022-07-31T22:04:34.457Z,46.89
2022-07-31T22:08:05.516Z,47.19
2022-07-31T22:11:09.745Z,47.32
2022-07-31T22:14:31.489Z,47.53
2022-07-31T22:17:41.544Z,47.59
2022-07-31T22:20:56.006Z,47.55
2022-07-31T22:24:16.108Z,47.46
2022-07-31T22:27:43.822Z,48.02
2022-07-31T22:31:00.218Z,48.02
2022-07-31T22:34:12.102Z,47.56
2022-07-31T22:38:00.772Z,47.94
2022-07-31T22:41:16.069Z,47.65
2022-07-31T22:44:55.981Z,47.62
2022-07-31T22:48:21.406Z,47.78
2022-07-31T22:51:29.453Z,47.72
2022-07-31T22:54:39.587Z,47.62
2022-07-31T22:57:44.644Z,47.86
2022-07-31T23:00:51.814Z,47.81
2022-07-31T23:03:57.749Z,47.73
2022-07-31T23:07:07.063Z,48.00
2022-07-31T23:10:14.769Z,47.88
2022-07-31T23:13:25.093Z,48.19
2022-07-31T23:16:37.874Z,48.31
2022-07-31T23:19:56.125Z,48.36
2022-07-31T23:23:04.910Z,48.52
2022-07-31T23:26:09.744Z,48.53
2022-07-31T23:29:16.981Z,49.15
2022-07-31T23:32:23.551Z,49.12
2022-07-31T23:35:51.122Z,49.42
2022-07-31T23:42:39.951Z,49.58
2022-07-31T23:45:44.119Z,49.51
2022-07-31T23:49:27.511Z,49.80
2022-07-31T23:52:46.398Z,49.95
2022-07-31T23:56:19.503Z,50.16
2022-07-31T23:59:23.665Z,50.16
